createdAt,value
2022-12-08T00:00:00.157Z,4.5
2022-12-08T00:05:00.356Z,4.5
2022-12-08T00:10:00.118Z,4.5
2022-12-08T00:15:00.161Z,4.5
2022-12-08T00:20:00.112Z,4.5
2022-12-08T00:25:00.109Z,4.5
2022-12-08T00:30:00.153Z,4.5
2022-12-08T00:35:00.289Z,4.5
2022-12-08T00:40:00.146Z,4.5
2022-12-08T00:45:00.089Z,4.5
2022-12-08T00:50:00.253Z,4.5
2022-12-08T00:55:00.096Z,4.5
2022-12-08T01:00:00.320Z,4.5
2022-12-08T01:05:00.101Z,4.5
2022-12-08T01:10:00.148Z,4.5
2022-12-08T01:15:02.429Z,4.5
2022-12-08T01:20:00.089Z,4.5
2022-12-08T01:25:00.092Z,4
2022-12-08T01:30:00.122Z,4
2022-12-08T01:35:00.107Z,4
2022-12-08T01:40:00.093Z,4
2022-12-08T01:45:00.088Z,4
2022-12-08T01:50:00.106Z,4
2022-12-08T01:55:00.104Z,4
2022-12-08T02:00:00.137Z,4
2022-12-08T02:05:00.086Z,4
2022-12-08T02:10:00.150Z,4
2022-12-08T02:15:03.497Z,4
2022-12-08T02:20:00.079Z,4
2022-12-08T02:25:00.099Z,4
2022-12-08T02:30:00.144Z,4
2022-12-08T02:35:00.104Z,4
2022-12-08T02:40:00.088Z,4
2022-12-08T02:45:00.082Z,4
2022-12-08T02:50:00.124Z,4.5
2022-12-08T02:55:00.092Z,4.5
2022-12-08T03:00:00.106Z,4.5
2022-12-08T03:05:00.104Z,4.5
2022-12-08T03:10:00.115Z,4.5
2022-12-08T03:15:00.098Z,4.5
2022-12-08T03:20:00.098Z,4
2022-12-08T03:25:00.094Z,4
2022-12-08T03:30:00.136Z,4
2022-12-08T03:35:00.084Z,4
2022-12-08T03:40:00.092Z,4
2022-12-08T03:45:00.101Z,4
2022-12-08T03:50:00.128Z,4
2022-12-08T03:55:00.138Z,4
2022-12-08T04:00:00.111Z,4
2022-12-08T04:05:00.119Z,3.5
2022-12-08T04:10:00.137Z,3.5
2022-12-08T04:15:00.139Z,3.5
2022-12-08T04:20:00.109Z,3.5
2022-12-08T04:25:00.100Z,3.5
2022-12-08T04:30:00.109Z,3.5
2022-12-08T04:35:00.142Z,3
2022-12-08T04:40:00.104Z,3
2022-12-08T04:45:00.098Z,3
2022-12-08T04:50:00.123Z,3
2022-12-08T04:55:00.083Z,3.5
2022-12-08T05:00:00.098Z,3.5
2022-12-08T05:05:00.102Z,3.5
2022-12-08T05:10:00.130Z,3.5
2022-12-08T05:15:00.089Z,3.5
2022-12-08T05:20:00.083Z,3.5
2022-12-08T05:25:00.122Z,3.5
2022-12-08T05:30:00.109Z,3.5
2022-12-08T05:35:00.090Z,3.5
2022-12-08T05:40:00.090Z,3.5
2022-12-08T05:45:00.087Z,3.5
2022-12-08T05:50:00.118Z,3.5
2022-12-08T05:55:00.094Z,3.5
2022-12-08T06:00:00.099Z,3.5
2022-12-08T06:05:00.089Z,3.5
2022-12-08T06:10:00.126Z,3.5
2022-12-08T06:15:00.100Z,3.5
2022-12-08T06:20:00.097Z,3.5
2022-12-08T06:25:00.124Z,3.5
2022-12-08T06:30:00.167Z,3
2022-12-08T06:35:00.103Z,3
2022-12-08T06:40:00.124Z,3
2022-12-08T06:45:00.084Z,3
2022-12-08T06:50:00.111Z,3
2022-12-08T06:55:00.096Z,3
2022-12-08T07:00:00.155Z,2.5
2022-12-08T07:05:00.092Z,2.5
2022-12-08T07:10:00.126Z,2.5
2022-12-08T07:15:00.090Z,2.5
2022-12-08T07:20:00.120Z,2.5
2022-12-08T07:25:00.086Z,2.5
2022-12-08T07:30:00.124Z,3
2022-12-08T07:35:00.100Z,3
2022-12-08T07:40:00.104Z,3
2022-12-08T07:45:00.084Z,3.5
2022-12-08T07:50:00.124Z,3.5
2022-12-08T07:55:00.095Z,3.5
2022-12-08T08:00:00.129Z,3.5
2022-12-08T08:05:00.229Z,3.5
2022-12-08T08:10:00.148Z,3.5
2022-12-08T08:15:00.145Z,4
2022-12-08T08:20:00.121Z,4
2022-12-08T08:25:00.096Z,4
2022-12-08T08:30:00.143Z,4
2022-12-08T08:35:00.106Z,4.5
2022-12-08T08:40:00.172Z,5
2022-12-08T08:45:00.092Z,5
2022-12-08T08:50:00.110Z,5
2022-12-08T08:55:00.161Z,6
2022-12-08T09:00:00.159Z,6.5
2022-12-08T09:05:00.196Z,7.5
2022-12-08T09:10:01.987Z,7.5
2022-12-08T09:15:00.118Z,7.5
2022-12-08T09:20:00.108Z,7
2022-12-08T09:25:00.089Z,7
2022-12-08T09:30:00.169Z,7.5
2022-12-08T09:35:00.095Z,7.5
2022-12-08T09:40:00.108Z,7
2022-12-08T09:45:00.105Z,7
2022-12-08T09:50:00.128Z,7
2022-12-08T09:55:00.090Z,7
2022-12-08T10:00:00.131Z,7
2022-12-08T10:05:00.188Z,7
2022-12-08T10:10:00.158Z,7
2022-12-08T10:15:00.092Z,7
2022-12-08T10:20:00.114Z,7
2022-12-08T10:25:00.109Z,7
2022-12-08T10:30:00.128Z,7
2022-12-08T10:35:00.105Z,7
2022-12-08T10:40:00.113Z,6.5
2022-12-08T10:45:00.135Z,7
2022-12-08T10:50:00.113Z,7
2022-12-08T10:55:00.084Z,7
2022-12-08T11:00:00.105Z,7.5
2022-12-08T11:05:00.106Z,7.5
2022-12-08T11:10:00.142Z,8
2022-12-08T11:15:00.110Z,8
2022-12-08T11:20:00.131Z,8
2022-12-08T11:25:00.118Z,8
2022-12-08T11:30:00.125Z,9
2022-12-08T11:35:00.097Z,9
2022-12-08T11:40:00.105Z,9
2022-12-08T11:45:00.090Z,9
2022-12-08T11:50:00.136Z,8.5
2022-12-08T11:55:00.108Z,8.5
2022-12-08T12:00:00.118Z,8
2022-12-08T12:05:00.090Z,8
2022-12-08T12:10:00.122Z,7.5
2022-12-08T12:15:00.108Z,7.5
2022-12-08T12:20:00.102Z,7
2022-12-08T12:25:00.093Z,7
2022-12-08T12:30:00.172Z,6.5
2022-12-08T12:35:00.116Z,6.5
2022-12-08T12:40:00.089Z,6.5
2022-12-08T12:45:00.093Z,6.5
2022-12-08T12:50:00.119Z,6.5
2022-12-08T12:55:00.108Z,6.5
2022-12-08T13:00:00.097Z,6.5
2022-12-08T13:05:00.125Z,6.5
2022-12-08T13:10:00.152Z,6.5
2022-12-08T13:15:00.101Z,6.5
2022-12-08T13:20:00.079Z,6.5
2022-12-08T13:25:00.110Z,6.5
2022-12-08T13:30:00.187Z,6.5
2022-12-08T13:35:00.137Z,6.5
2022-12-08T13:40:00.121Z,6.5
2022-12-08T13:56:24.631Z,6.5
2022-12-08T14:00:00.102Z,6.5
2022-12-08T14:10:00.178Z,6
2022-12-08T14:15:03.578Z,6
2022-12-08T14:20:00.098Z,6
2022-12-08T14:25:00.090Z,6
2022-12-08T14:30:00.157Z,6
2022-12-08T14:35:00.124Z,6
2022-12-08T14:40:00.113Z,5.5
2022-12-08T14:45:00.087Z,5.5
2022-12-08T14:50:00.119Z,5.5
2022-12-08T14:55:00.107Z,5.5
2022-12-08T15:00:00.124Z,5.5
2022-12-08T15:05:00.155Z,5.5
2022-12-08T15:10:00.150Z,5.5
2022-12-08T15:15:00.121Z,5.5
2022-12-08T15:20:00.098Z,5.5
2022-12-08T15:25:00.127Z,5.5
2022-12-08T15:30:00.136Z,5.5
2022-12-08T15:35:00.124Z,5
2022-12-08T15:40:00.099Z,5.5
2022-12-08T15:45:00.096Z,5.5
2022-12-08T15:50:00.120Z,5.5
2022-12-08T15:55:00.099Z,5
2022-12-08T16:00:00.133Z,5
2022-12-08T16:10:00.348Z,5.5
2022-12-08T16:20:00.276Z,5.5
2022-12-08T16:25:09.489Z,5.5
2022-12-08T16:30:00.158Z,5.5
2022-12-08T16:35:00.106Z,5.5
2022-12-08T16:40:00.376Z,5
2022-12-08T16:45:00.091Z,5
2022-12-08T16:50:00.119Z,4.5
2022-12-08T16:55:00.086Z,4.5
2022-12-08T17:00:00.120Z,4
2022-12-08T17:05:00.182Z,4
2022-12-08T17:10:00.125Z,4
2022-12-08T17:15:00.118Z,4
2022-12-08T17:20:00.138Z,4
2022-12-08T17:25:00.098Z,4
2022-12-08T17:30:00.184Z,4
2022-12-08T17:35:00.086Z,3.5
2022-12-08T17:40:00.126Z,3.5
2022-12-08T17:45:00.111Z,3.5
2022-12-08T17:50:00.114Z,3.5
2022-12-08T17:55:00.093Z,3.5
2022-12-08T18:00:00.204Z,3.5
2022-12-08T18:05:00.113Z,3
2022-12-08T18:10:00.117Z,3
2022-12-08T18:15:00.122Z,3
2022-12-08T18:20:00.104Z,3
2022-12-08T18:25:00.110Z,2.5
2022-12-08T18:30:00.154Z,2.5
2022-12-08T18:35:00.101Z,2.5
2022-12-08T18:40:00.096Z,2.5
2022-12-08T18:45:00.123Z,2.5
2022-12-08T18:50:00.135Z,2.5
2022-12-08T18:55:07.758Z,2.5
2022-12-08T19:00:00.169Z,2
2022-12-08T19:05:00.116Z,2
2022-12-08T19:10:00.145Z,2
2022-12-08T19:15:00.106Z,2
2022-12-08T19:20:00.132Z,2
2022-12-08T19:25:00.113Z,2
2022-12-08T19:30:00.187Z,2
2022-12-08T19:35:00.321Z,2.5
2022-12-08T19:40:00.105Z,2.5
2022-12-08T19:45:00.094Z,2.5
2022-12-08T19:50:00.161Z,2.5
2022-12-08T19:55:00.115Z,2.5
2022-12-08T20:00:00.157Z,2.5
2022-12-08T20:05:00.162Z,2.5
2022-12-08T20:10:00.119Z,2.5
2022-12-08T20:15:00.137Z,2.5
2022-12-08T20:20:03.962Z,2.5
2022-12-08T20:25:01.086Z,2.5
2022-12-08T20:30:00.232Z,2.5
2022-12-08T20:35:00.107Z,2.5
2022-12-08T20:40:00.139Z,2.5
2022-12-08T20:45:00.103Z,2.5
2022-12-08T20:50:00.286Z,2.5
2022-12-08T20:55:00.225Z,2.5
2022-12-08T21:00:00.145Z,2.5
2022-12-08T21:05:00.278Z,2.5
2022-12-08T21:10:00.176Z,2.5
2022-12-08T21:15:00.278Z,3
2022-12-08T21:20:00.194Z,3
2022-12-08T21:25:00.324Z,2.5
2022-12-08T21:30:00.340Z,3
2022-12-08T21:35:00.226Z,3
2022-12-08T21:40:00.293Z,2.5
2022-12-08T21:45:00.161Z,2.5
2022-12-08T21:50:00.219Z,2.5
2022-12-08T21:55:00.297Z,2.5
2022-12-08T22:00:00.328Z,2.5
2022-12-08T22:05:00.239Z,2.5
2022-12-08T22:10:00.311Z,2.5
2022-12-08T22:15:00.250Z,2.5
2022-12-08T22:20:00.171Z,2.5
2022-12-08T22:25:00.330Z,3
2022-12-08T22:30:00.261Z,2.5
2022-12-08T22:35:00.122Z,3
2022-12-08T22:40:00.096Z,3
2022-12-08T22:45:00.100Z,2.5
2022-12-08T22:50:00.141Z,2.5
2022-12-08T22:55:00.137Z,2.5
2022-12-08T23:00:00.125Z,2.5
2022-12-08T23:05:00.468Z,2.5
2022-12-08T23:10:00.353Z,2.5
2022-12-08T23:15:00.084Z,3
2022-12-08T23:20:00.143Z,3
2022-12-08T23:25:00.084Z,3
2022-12-08T23:30:00.357Z,3
2022-12-08T23:35:00.266Z,3
2022-12-08T23:40:00.356Z,3
2022-12-08T23:45:00.340Z,3
2022-12-08T23:50:00.327Z,3
2022-12-08T23:55:00.098Z,3
